createdAt,value
2017-09-15T00:00:02.835Z,1004.32
2017-09-15T00:01:02.814Z,1004.31
2017-09-15T00:02:02.792Z,1004.27
2017-09-15T00:03:02.768Z,1004.31
2017-09-15T00:04:02.748Z,1004.26
2017-09-15T00:05:02.721Z,1004.3
2017-09-15T00:06:02.702Z,1004.32
2017-09-15T00:07:02.678Z,1004.32
2017-09-15T00:08:02.657Z,1004.37
2017-09-15T00:09:02.631Z,1004.33
2017-09-15T00:10:02.611Z,1004.35
2017-09-15T00:11:02.588Z,1004.38
2017-09-15T00:12:02.568Z,1004.36
2017-09-15T00:13:02.542Z,1004.39
2017-09-15T00:14:02.521Z,1004.44
2017-09-15T00:15:02.495Z,1004.41
2017-09-15T00:16:02.473Z,1004.44
2017-09-15T00:17:02.451Z,1004.45
2017-09-15T00:18:02.426Z,1004.46
2017-09-15T00:19:02.404Z,1004.42
2017-09-15T00:20:02.381Z,1004.46
2017-09-15T00:21:02.361Z,1004.47
2017-09-15T00:22:02.337Z,1004.45
2017-09-15T00:23:02.315Z,1004.44
2017-09-15T00:24:02.290Z,1004.43
2017-09-15T00:25:02.271Z,1004.49
2017-09-15T00:26:02.248Z,1004.48
2017-09-15T00:27:02.223Z,1004.5
2017-09-15T00:28:02.199Z,1004.49
2017-09-15T00:29:02.176Z,1004.49
2017-09-15T00:30:02.154Z,1004.54
2017-09-15T00:31:02.132Z,1004.5
2017-09-15T00:32:02.108Z,1004.49
2017-09-15T00:33:02.085Z,1004.48
2017-09-15T00:34:02.062Z,1004.5
2017-09-15T00:35:02.044Z,1004.51
2017-09-15T00:36:02.020Z,1004.51
2017-09-15T00:37:01.994Z,1004.52
2017-09-15T00:38:01.971Z,1004.54
2017-09-15T00:39:01.948Z,1004.52
2017-09-15T00:40:01.924Z,1004.48
2017-09-15T00:41:01.901Z,1004.54
2017-09-15T00:42:01.882Z,1004.5
2017-09-15T00:43:01.855Z,1004.56
2017-09-15T00:44:01.835Z,1004.54
2017-09-15T00:45:01.812Z,1004.54
2017-09-15T00:46:01.789Z,1004.56
2017-09-15T00:47:01.768Z,1004.58
2017-09-15T00:48:01.744Z,1004.57
2017-09-15T00:49:01.746Z,1004.57
2017-09-15T00:50:01.705Z,1004.56
2017-09-15T00:51:01.681Z,1004.6
2017-09-15T00:52:01.652Z,1004.57
2017-09-15T00:53:01.631Z,1004.62
2017-09-15T00:54:01.611Z,1004.6
2017-09-15T00:55:01.585Z,1004.6
2017-09-15T00:56:01.561Z,1004.59
2017-09-15T00:57:01.538Z,1004.64
2017-09-15T00:58:01.515Z,1004.68
2017-09-15T00:59:01.496Z,1004.61
2017-09-15T01:00:01.470Z,1004.65
2017-09-15T01:01:01.446Z,1004.65
2017-09-15T01:02:01.427Z,1004.61
2017-09-15T01:03:01.400Z,1004.63
2017-09-15T01:04:01.383Z,1004.66
2017-09-15T01:05:01.356Z,1004.66
2017-09-15T01:06:01.332Z,1004.65
2017-09-15T01:07:01.310Z,1004.69
2017-09-15T01:08:01.290Z,1004.7
2017-09-15T01:09:01.263Z,1004.66
2017-09-15T01:10:01.240Z,1004.66
2017-09-15T01:11:01.218Z,1004.73
2017-09-15T01:12:01.195Z,1004.76
2017-09-15T01:13:01.173Z,1004.75
2017-09-15T01:14:01.149Z,1004.77
2017-09-15T01:15:01.128Z,1004.81
2017-09-15T01:16:01.105Z,1004.77
2017-09-15T01:17:01.085Z,1004.72
2017-09-15T01:18:01.058Z,1004.74
2017-09-15T01:19:01.034Z,1004.8
2017-09-15T01:20:01.014Z,1004.8
2017-09-15T01:21:00.991Z,1004.82
2017-09-15T01:22:00.967Z,1004.82
2017-09-15T01:23:00.945Z,1004.83
2017-09-15T01:24:00.921Z,1004.79
2017-09-15T01:25:00.897Z,1004.78
2017-09-15T01:26:00.875Z,1004.83
2017-09-15T01:27:00.855Z,1004.83
2017-09-15T01:28:00.833Z,1004.87
2017-09-15T01:29:00.805Z,1004.87
2017-09-15T01:30:00.786Z,1004.84
2017-09-15T01:31:00.763Z,1004.84
2017-09-15T01:32:00.740Z,1004.88
2017-09-15T01:33:00.714Z,1004.86
2017-09-15T01:34:00.706Z,1004.92
2017-09-15T01:35:00.669Z,1004.91
2017-09-15T01:36:00.641Z,1004.92
2017-09-15T01:37:00.673Z,1004.86
2017-09-15T01:38:00.600Z,1004.89
2017-09-15T01:39:00.580Z,1004.88
2017-09-15T01:40:00.555Z,1004.92
2017-09-15T01:41:00.532Z,1004.96
2017-09-15T01:42:00.509Z,1004.96
2017-09-15T01:43:00.488Z,1004.93
2017-09-15T01:44:00.463Z,1004.89
2017-09-15T01:45:00.443Z,1004.95
2017-09-15T01:46:00.422Z,1004.89
2017-09-15T01:47:00.393Z,1004.88
2017-09-15T01:48:00.372Z,1004.93
2017-09-15T01:49:00.353Z,1004.94
2017-09-15T01:50:00.327Z,1004.92
2017-09-15T01:51:00.304Z,1004.87
2017-09-15T01:52:00.333Z,1004.91
2017-09-15T01:53:00.258Z,1004.91
2017-09-15T01:54:00.234Z,1004.93
2017-09-15T01:55:00.214Z,1004.9
2017-09-15T01:56:00.190Z,1004.83
2017-09-15T01:57:00.166Z,1004.88
2017-09-15T01:58:00.216Z,1004.89
2017-09-15T01:59:00.123Z,1004.91
2017-09-15T02:00:00.099Z,1004.9
2017-09-15T02:01:00.073Z,1004.87
2017-09-15T02:02:00.053Z,1004.9
2017-09-15T02:03:00.034Z,1004.93
2017-09-15T02:04:00.006Z,1004.92
2017-09-15T02:04:59.983Z,1004.89
2017-09-15T02:05:59.961Z,1004.93
2017-09-15T02:06:59.937Z,1004.91
2017-09-15T02:07:59.918Z,1004.92
2017-09-15T02:08:59.892Z,1004.9
2017-09-15T02:09:59.869Z,1004.89
2017-09-15T02:10:59.848Z,1004.91
2017-09-15T02:11:59.822Z,1004.85
2017-09-15T02:12:59.801Z,1004.84
2017-09-15T02:13:59.779Z,1004.84
2017-09-15T02:14:59.755Z,1004.87
2017-09-15T02:15:59.738Z,1004.86
2017-09-15T02:16:59.713Z,1004.83
2017-09-15T02:17:59.688Z,1004.83
2017-09-15T02:18:59.664Z,1004.88
2017-09-15T02:19:59.642Z,1004.84
2017-09-15T02:20:59.622Z,1004.87
2017-09-15T02:21:59.601Z,1004.83
2017-09-15T02:22:59.573Z,1004.8
2017-09-15T02:23:59.554Z,1004.87
2017-09-15T02:24:59.530Z,1004.87
2017-09-15T02:25:59.506Z,1004.9
2017-09-15T02:26:59.485Z,1004.86
2017-09-15T02:27:59.461Z,1004.9
2017-09-15T02:28:59.438Z,1004.86
2017-09-15T02:29:59.415Z,1004.9
2017-09-15T02:30:59.395Z,1004.97
2017-09-15T02:31:59.368Z,1004.89
2017-09-15T02:32:59.345Z,1004.94
2017-09-15T02:33:59.321Z,1004.92
2017-09-15T02:34:59.298Z,1004.94
2017-09-15T02:35:59.277Z,1004.92
2017-09-15T02:36:59.254Z,1004.91
2017-09-15T02:37:59.231Z,1004.97
2017-09-15T02:38:59.209Z,1004.94
2017-09-15T02:39:59.187Z,1004.95
2017-09-15T02:40:59.166Z,1004.98
2017-09-15T02:41:59.138Z,1004.99
2017-09-15T02:42:59.119Z,1005
2017-09-15T02:43:59.093Z,1005.01
2017-09-15T02:44:59.072Z,1005.02
2017-09-15T02:45:59.049Z,1005.04
2017-09-15T02:46:59.024Z,1005.06
2017-09-15T02:47:59.003Z,1005.09
2017-09-15T02:48:58.982Z,1005.08
2017-09-15T02:49:58.963Z,1005.07
2017-09-15T02:50:58.935Z,1005.07
2017-09-15T02:51:58.912Z,1005.04
2017-09-15T02:52:58.898Z,1005.04
2017-09-15T02:53:58.866Z,1005.04
2017-09-15T02:54:58.844Z,1005.1
2017-09-15T02:55:58.820Z,1005.09
2017-09-15T02:56:58.801Z,1005.06
2017-09-15T02:57:58.776Z,1005.05
2017-09-15T02:58:58.753Z,1005.08
2017-09-15T02:59:58.730Z,1005.15
2017-09-15T03:00:58.708Z,1005.09
2017-09-15T03:01:58.685Z,1005.12
2017-09-15T03:02:58.660Z,1005.11
2017-09-15T03:03:58.639Z,1005.11
2017-09-15T03:04:58.618Z,1005.12
2017-09-15T03:05:58.595Z,1005.12
2017-09-15T03:06:58.572Z,1005.1
2017-09-15T03:07:58.549Z,1005.06
2017-09-15T03:08:58.527Z,1005.07
2017-09-15T03:09:58.506Z,1005.08
2017-09-15T03:10:58.481Z,1005.1
2017-09-15T03:11:58.459Z,1005.08
2017-09-15T03:12:58.436Z,1005.09
2017-09-15T03:13:58.417Z,1005.09
2017-09-15T03:14:58.390Z,1005.09
2017-09-15T03:15:58.367Z,1005.12
2017-09-15T03:16:58.343Z,1005.12
2017-09-15T03:17:58.322Z,1005.11
2017-09-15T03:18:58.299Z,1005.06
2017-09-15T03:19:58.278Z,1005.11
2017-09-15T03:20:58.304Z,1005.04
2017-09-15T03:21:58.241Z,1005.04
2017-09-15T03:22:58.213Z,1005
2017-09-15T03:23:58.187Z,1004.97
2017-09-15T03:24:58.162Z,1004.96
2017-09-15T03:25:58.140Z,1004.95
2017-09-15T03:26:58.121Z,1004.98
2017-09-15T03:27:58.094Z,1005
2017-09-15T03:28:58.073Z,1004.96
2017-09-15T03:29:58.049Z,1005.01
2017-09-15T03:30:58.027Z,1004.99
2017-09-15T03:31:58.005Z,1004.95
2017-09-15T03:32:57.981Z,1004.96
2017-09-15T03:33:57.957Z,1004.99
2017-09-15T03:34:57.935Z,1005
2017-09-15T03:35:57.918Z,1004.98
2017-09-15T03:36:57.895Z,1004.99
2017-09-15T03:37:57.873Z,1004.94
2017-09-15T03:38:57.844Z,1004.88
2017-09-15T03:39:57.824Z,1004.88
2017-09-15T03:40:57.804Z,1004.88
2017-09-15T03:41:57.778Z,1004.89
2017-09-15T03:42:57.753Z,1004.93
2017-09-15T03:43:57.731Z,1004.89
2017-09-15T03:44:57.707Z,1004.88
2017-09-15T03:45:57.686Z,1004.9
2017-09-15T03:46:57.670Z,1004.92
2017-09-15T03:47:57.640Z,1004.92
2017-09-15T03:48:57.621Z,1004.94
2017-09-15T03:49:57.595Z,1004.96
2017-09-15T03:50:57.570Z,1004.98
2017-09-15T03:51:57.554Z,1005.02
2017-09-15T03:52:57.526Z,1005.05
2017-09-15T03:53:57.502Z,1005.05
2017-09-15T03:54:57.529Z,1005.05
2017-09-15T03:55:57.460Z,1005.02
2017-09-15T03:56:57.439Z,1004.99
2017-09-15T03:57:57.415Z,1005.02
2017-09-15T03:58:57.391Z,1005.03
2017-09-15T03:59:57.367Z,1005.04
2017-09-15T04:00:57.344Z,1005.05
2017-09-15T04:01:57.322Z,1005.01
2017-09-15T04:02:57.298Z,1005.02
2017-09-15T04:03:57.276Z,1005.04
2017-09-15T04:04:57.256Z,1005.03
2017-09-15T04:05:57.229Z,1005.02
2017-09-15T04:06:57.210Z,1005.04
2017-09-15T04:07:57.185Z,1005.06
2017-09-15T04:08:57.162Z,1005.05
2017-09-15T04:09:57.139Z,1005
2017-09-15T04:10:57.117Z,1005.02
2017-09-15T04:11:57.092Z,1005.02
2017-09-15T04:12:57.069Z,1004.99
2017-09-15T04:13:57.047Z,1005.02
2017-09-15T04:14:57.025Z,1004.98
2017-09-15T04:15:57.004Z,1005.04
2017-09-15T04:16:56.979Z,1005.05
2017-09-15T04:17:56.956Z,1005.05
2017-09-15T04:18:56.933Z,1005.06
2017-09-15T04:19:56.911Z,1005.07
2017-09-15T04:20:56.891Z,1005.08
2017-09-15T04:21:56.865Z,1005.11
2017-09-15T04:22:56.839Z,1005.14
2017-09-15T04:23:56.822Z,1005.1
2017-09-15T04:24:56.845Z,1005.19
2017-09-15T04:25:56.772Z,1005.23
2017-09-15T04:26:56.748Z,1005.21
2017-09-15T04:27:56.725Z,1005.21
2017-09-15T04:28:56.704Z,1005.2
2017-09-15T04:29:56.679Z,1005.17
2017-09-15T04:30:56.657Z,1005.16
2017-09-15T04:31:56.634Z,1005.17
2017-09-15T04:32:56.611Z,1005.18
2017-09-15T04:33:56.592Z,1005.17
2017-09-15T04:34:56.569Z,1005.23
2017-09-15T04:35:56.552Z,1005.19
2017-09-15T04:36:56.521Z,1005.21
2017-09-15T04:37:56.495Z,1005.16
2017-09-15T04:38:56.480Z,1005.17
2017-09-15T04:39:56.451Z,1005.2
2017-09-15T04:40:56.427Z,1005.18
2017-09-15T04:41:56.407Z,1005.18
2017-09-15T04:42:56.381Z,1005.16
2017-09-15T04:43:56.358Z,1005.2
2017-09-15T04:44:56.339Z,1005.26
2017-09-15T04:45:56.311Z,1005.22
2017-09-15T04:46:56.289Z,1005.21
2017-09-15T04:47:56.267Z,1005.25
2017-09-15T04:48:56.243Z,1005.23
2017-09-15T04:49:56.224Z,1005.26
2017-09-15T04:50:56.200Z,1005.23
2017-09-15T04:51:56.174Z,1005.27
2017-09-15T04:52:56.152Z,1005.27
2017-09-15T04:53:56.130Z,1005.29
2017-09-15T04:54:56.106Z,1005.26
2017-09-15T04:55:56.083Z,1005.24
2017-09-15T04:56:56.058Z,1005.25
2017-09-15T04:57:56.089Z,1005.24
2017-09-15T04:58:56.017Z,1005.23
2017-09-15T04:59:55.990Z,1005.18
2017-09-15T05:00:55.966Z,1005.17
2017-09-15T05:01:55.943Z,1005.16
2017-09-15T05:02:55.925Z,1005.17
2017-09-15T05:03:55.898Z,1005.11
2017-09-15T05:04:55.876Z,1005.17
2017-09-15T05:05:55.853Z,1005.16
2017-09-15T05:06:55.830Z,1005.15
2017-09-15T05:07:55.804Z,1005.2
2017-09-15T05:08:55.787Z,1005.16
2017-09-15T05:09:55.762Z,1005.18
2017-09-15T05:10:55.737Z,1005.26
2017-09-15T05:11:55.715Z,1005.22
2017-09-15T05:12:55.694Z,1005.16
2017-09-15T05:13:55.669Z,1005.17
2017-09-15T05:14:55.646Z,1005.17
2017-09-15T05:15:55.624Z,1005.25
2017-09-15T05:16:55.602Z,1005.17
2017-09-15T05:17:55.576Z,1005.18
2017-09-15T05:18:55.557Z,1005.17
2017-09-15T05:19:55.532Z,1005.18
2017-09-15T05:20:55.509Z,1005.19
2017-09-15T05:21:55.487Z,1005.14
2017-09-15T05:22:55.462Z,1005.16
2017-09-15T05:23:55.445Z,1005.13
2017-09-15T05:24:55.414Z,1005.13
2017-09-15T05:25:55.398Z,1005.1
2017-09-15T05:26:55.371Z,1005.12
2017-09-15T05:27:55.350Z,1005.11
2017-09-15T05:28:55.325Z,1005.14
2017-09-15T05:29:55.304Z,1005.13
2017-09-15T05:30:55.279Z,1005.11
2017-09-15T05:31:55.257Z,1005.13
2017-09-15T05:32:55.234Z,1005.13
2017-09-15T05:33:55.215Z,1005.12
2017-09-15T05:34:55.190Z,1005.05
2017-09-15T05:35:55.167Z,1005.08
2017-09-15T05:36:55.145Z,1005.08
2017-09-15T05:37:55.124Z,1005.14
2017-09-15T05:38:55.099Z,1005.08
2017-09-15T05:39:55.079Z,1005.06
2017-09-15T05:40:55.056Z,1005.02
2017-09-15T05:41:55.030Z,1005.02
2017-09-15T05:42:55.005Z,1005.02
2017-09-15T05:43:54.981Z,1005.01
2017-09-15T05:44:54.963Z,1005
2017-09-15T05:45:54.938Z,1004.97
2017-09-15T05:46:54.914Z,1004.94
2017-09-15T05:47:54.890Z,1004.95
2017-09-15T05:48:54.869Z,1005
2017-09-15T05:49:54.852Z,1004.97
2017-09-15T05:50:54.825Z,1004.95
2017-09-15T05:51:54.810Z,1004.96
2017-09-15T05:52:54.782Z,1004.93
2017-09-15T05:53:54.753Z,1004.99
2017-09-15T05:54:54.734Z,1004.98
2017-09-15T05:55:54.708Z,1005
2017-09-15T05:56:54.689Z,1004.97
2017-09-15T05:57:54.664Z,1004.98
2017-09-15T05:58:54.643Z,1005
2017-09-15T05:59:54.619Z,1004.97
2017-09-15T06:00:54.598Z,1004.98
2017-09-15T06:01:54.575Z,1004.94
2017-09-15T06:02:54.549Z,1004.96
2017-09-15T06:03:54.529Z,1004.91
2017-09-15T06:04:54.505Z,1004.96
2017-09-15T06:05:54.482Z,1004.93
2017-09-15T06:06:54.461Z,1004.88
2017-09-15T06:07:54.437Z,1004.9
2017-09-15T06:08:54.414Z,1004.88
2017-09-15T06:09:54.393Z,1004.9
2017-09-15T06:10:54.370Z,1004.92
2017-09-15T06:11:54.348Z,1004.91
2017-09-15T06:12:54.322Z,1004.92
2017-09-15T06:13:54.302Z,1004.97
2017-09-15T06:14:54.279Z,1004.93
2017-09-15T06:15:54.265Z,1004.92
2017-09-15T06:16:54.234Z,1004.88
2017-09-15T06:17:54.211Z,1004.91
2017-09-15T06:18:54.192Z,1004.89
2017-09-15T06:19:54.173Z,1004.94
2017-09-15T06:20:54.142Z,1004.88
2017-09-15T06:21:54.123Z,1004.86
2017-09-15T06:22:54.100Z,1004.89
2017-09-15T06:23:54.076Z,1004.85
2017-09-15T06:24:54.055Z,1004.88
2017-09-15T06:25:54.032Z,1004.84
2017-09-15T06:26:54.010Z,1004.86
2017-09-15T06:27:53.988Z,1004.84
2017-09-15T06:28:53.966Z,1004.85
2017-09-15T06:29:53.942Z,1004.84
2017-09-15T06:30:53.921Z,1004.85
2017-09-15T06:31:53.899Z,1004.81
2017-09-15T06:32:53.877Z,1004.79
2017-09-15T06:33:53.852Z,1004.79
2017-09-15T06:34:53.833Z,1004.77
2017-09-15T06:35:53.815Z,1004.75
2017-09-15T06:36:53.788Z,1004.74
2017-09-15T06:37:53.765Z,1004.76
2017-09-15T06:38:53.744Z,1004.74
2017-09-15T06:39:53.744Z,1004.77
2017-09-15T06:40:53.701Z,1004.74
2017-09-15T06:41:53.679Z,1004.72
2017-09-15T06:42:53.657Z,1004.77
2017-09-15T06:43:53.635Z,1004.79
2017-09-15T06:44:53.613Z,1004.8
2017-09-15T06:45:53.593Z,1004.83
2017-09-15T06:46:53.569Z,1004.84
2017-09-15T06:47:53.548Z,1004.84
2017-09-15T06:48:53.524Z,1004.86
2017-09-15T06:49:53.501Z,1004.83
2017-09-15T06:50:53.483Z,1004.82
2017-09-15T06:51:53.460Z,1004.86
2017-09-15T06:52:53.435Z,1004.82
2017-09-15T06:53:53.413Z,1004.88
2017-09-15T06:54:53.393Z,1004.85
2017-09-15T06:55:53.369Z,1004.89
2017-09-15T06:56:53.350Z,1004.87
2017-09-15T06:57:53.325Z,1004.87
2017-09-15T06:58:53.301Z,1004.87
2017-09-15T06:59:53.281Z,1004.9
2017-09-15T07:00:53.258Z,1004.88
2017-09-15T07:01:53.236Z,1004.86
2017-09-15T07:02:53.217Z,1004.86
2017-09-15T07:03:53.192Z,1004.84
2017-09-15T07:04:53.170Z,1004.86
2017-09-15T07:05:53.152Z,1004.82
2017-09-15T07:06:53.124Z,1004.8
2017-09-15T07:07:53.106Z,1004.83
2017-09-15T07:08:53.083Z,1004.81
2017-09-15T07:09:53.060Z,1004.81
2017-09-15T07:10:53.039Z,1004.86
2017-09-15T07:11:53.021Z,1004.86
2017-09-15T07:12:52.998Z,1004.91
2017-09-15T07:13:52.975Z,1004.87
2017-09-15T07:14:52.950Z,1004.89
2017-09-15T07:15:52.931Z,1004.83
2017-09-15T07:16:52.908Z,1004.91
2017-09-15T07:17:52.886Z,1004.91
2017-09-15T07:18:52.863Z,1004.88
2017-09-15T07:19:52.846Z,1004.92
2017-09-15T07:20:52.827Z,1004.92
2017-09-15T07:21:52.798Z,1004.94
2017-09-15T07:22:52.776Z,1004.98
2017-09-15T07:23:52.757Z,1004.99
2017-09-15T07:24:52.736Z,1004.98
2017-09-15T07:25:52.717Z,1005.02
2017-09-15T07:26:52.694Z,1005.04
2017-09-15T07:27:52.673Z,1005.05
2017-09-15T07:28:52.649Z,1005.11
2017-09-15T07:29:52.629Z,1005.09
2017-09-15T07:30:52.607Z,1005.1
2017-09-15T07:31:52.586Z,1005.1
2017-09-15T07:32:52.562Z,1005.13
2017-09-15T07:33:52.542Z,1005.09
2017-09-15T07:34:52.523Z,1005.12
2017-09-15T07:35:52.499Z,1005.05
2017-09-15T07:36:52.477Z,1005.08
2017-09-15T07:37:52.470Z,1005.08
2017-09-15T07:38:52.439Z,1005.1
2017-09-15T07:39:52.412Z,1005.12
2017-09-15T07:40:52.391Z,1005.1
2017-09-15T07:41:52.373Z,1005.16
2017-09-15T07:42:52.349Z,1005.15
2017-09-15T07:43:52.329Z,1005.16
2017-09-15T07:44:52.309Z,1005.14
2017-09-15T07:45:52.289Z,1005.21
2017-09-15T07:46:52.265Z,1005.19
2017-09-15T07:47:52.242Z,1005.28
2017-09-15T07:48:52.223Z,1005.25
2017-09-15T07:49:52.200Z,1005.29
2017-09-15T07:50:52.178Z,1005.28
2017-09-15T07:51:52.159Z,1005.3
2017-09-15T07:52:52.142Z,1005.35
2017-09-15T07:53:52.115Z,1005.39
2017-09-15T07:54:52.090Z,1005.38
2017-09-15T07:55:52.073Z,1005.41
2017-09-15T07:56:52.049Z,1005.44
2017-09-15T07:57:52.032Z,1005.44
2017-09-15T07:58:52.009Z,1005.43
2017-09-15T07:59:51.986Z,1005.46
2017-09-15T08:00:51.964Z,1005.5
2017-09-15T08:01:51.944Z,1005.46
2017-09-15T08:02:51.925Z,1005.48
2017-09-15T08:03:51.901Z,1005.45
2017-09-15T08:04:51.879Z,1005.49
2017-09-15T08:05:51.858Z,1005.52
2017-09-15T08:06:51.838Z,1005.47
2017-09-15T08:07:51.814Z,1005.48
2017-09-15T08:08:51.796Z,1005.49
2017-09-15T08:09:51.771Z,1005.49
2017-09-15T08:10:51.750Z,1005.49
2017-09-15T08:11:51.729Z,1005.51
2017-09-15T08:12:51.707Z,1005.49
2017-09-15T08:13:51.686Z,1005.5
2017-09-15T08:14:51.665Z,1005.54
2017-09-15T08:15:51.646Z,1005.53
2017-09-15T08:16:51.626Z,1005.53
2017-09-15T08:17:51.601Z,1005.52
2017-09-15T08:18:51.582Z,1005.53
2017-09-15T08:19:51.561Z,1005.55
2017-09-15T08:20:51.540Z,1005.57
2017-09-15T08:21:51.515Z,1005.53
2017-09-15T08:22:51.499Z,1005.54
2017-09-15T08:23:51.475Z,1005.51
2017-09-15T08:24:51.451Z,1005.49
2017-09-15T08:25:51.432Z,1005.6
2017-09-15T08:26:51.410Z,1005.55
2017-09-15T08:27:51.390Z,1005.54
2017-09-15T08:28:51.368Z,1005.57
2017-09-15T08:29:51.346Z,1005.62
2017-09-15T08:30:51.325Z,1005.6
2017-09-15T08:31:51.304Z,1005.65
2017-09-15T08:32:51.286Z,1005.61
2017-09-15T08:33:51.261Z,1005.62
2017-09-15T08:34:51.240Z,1005.64
2017-09-15T08:35:51.220Z,1005.62
2017-09-15T08:36:51.195Z,1005.63
2017-09-15T08:37:51.182Z,1005.6
2017-09-15T08:38:51.156Z,1005.6
2017-09-15T08:39:51.185Z,1005.6
2017-09-15T08:40:51.117Z,1005.61
2017-09-15T08:41:51.093Z,1005.59
2017-09-15T08:42:51.076Z,1005.57
2017-09-15T08:43:51.050Z,1005.52
2017-09-15T08:44:51.029Z,1005.58
2017-09-15T08:45:51.008Z,1005.57
2017-09-15T08:46:50.987Z,1005.59
2017-09-15T08:47:50.963Z,1005.56
2017-09-15T08:48:50.944Z,1005.54
2017-09-15T08:49:50.921Z,1005.55
2017-09-15T08:50:50.903Z,1005.51
2017-09-15T08:51:50.878Z,1005.54
2017-09-15T08:52:50.855Z,1005.51
2017-09-15T08:53:50.835Z,1005.54
2017-09-15T08:54:50.812Z,1005.49
2017-09-15T08:55:50.791Z,1005.53
2017-09-15T08:56:50.768Z,1005.48
2017-09-15T08:57:50.748Z,1005.48
2017-09-15T08:58:50.726Z,1005.49
2017-09-15T08:59:50.704Z,1005.48
2017-09-15T09:00:50.681Z,1005.47
2017-09-15T09:01:50.662Z,1005.45
2017-09-15T09:02:50.639Z,1005.43
2017-09-15T09:03:50.617Z,1005.4
2017-09-15T09:04:50.598Z,1005.4
2017-09-15T09:05:50.577Z,1005.39
2017-09-15T09:06:50.559Z,1005.39
2017-09-15T09:07:50.530Z,1005.39
2017-09-15T09:08:50.509Z,1005.39
2017-09-15T09:09:50.492Z,1005.35
2017-09-15T09:10:50.467Z,1005.35
2017-09-15T09:11:50.442Z,1005.32
2017-09-15T09:12:50.422Z,1005.33
2017-09-15T09:13:50.401Z,1005.28
2017-09-15T09:14:50.378Z,1005.26
2017-09-15T09:15:50.359Z,1005.2
2017-09-15T09:16:50.333Z,1005.19
2017-09-15T09:17:50.317Z,1005.17
2017-09-15T09:18:50.299Z,1005.13
2017-09-15T09:19:50.272Z,1005.12
2017-09-15T09:20:50.256Z,1005.1
2017-09-15T09:21:50.239Z,1005.02
2017-09-15T09:22:50.209Z,1005.05
2017-09-15T09:23:50.188Z,1005.04
2017-09-15T09:24:50.164Z,1005
2017-09-15T09:25:50.150Z,1005.01
2017-09-15T09:26:50.124Z,1005.05
2017-09-15T09:27:50.104Z,1005.04
2017-09-15T09:28:50.083Z,1005.11
2017-09-15T09:29:50.064Z,1005.11
2017-09-15T09:30:50.039Z,1005.07
2017-09-15T09:31:50.019Z,1005.1
2017-09-15T09:32:50.002Z,1005.18
2017-09-15T09:33:49.978Z,1005.16
2017-09-15T09:34:49.955Z,1005.13
2017-09-15T09:35:49.938Z,1005.16
2017-09-15T09:36:49.917Z,1005.11
2017-09-15T09:37:49.898Z,1005.15
2017-09-15T09:38:49.877Z,1005.11
2017-09-15T09:39:49.865Z,1005.09
2017-09-15T09:40:49.839Z,1005.11
2017-09-15T09:41:49.820Z,1005.06
2017-09-15T09:42:49.802Z,1005.02
2017-09-15T09:43:49.781Z,1005.03
2017-09-15T09:44:49.765Z,1004.98
2017-09-15T09:45:49.745Z,1005.01
2017-09-15T09:46:49.725Z,1005.01
2017-09-15T09:47:49.710Z,1004.97
2017-09-15T09:48:49.690Z,1005.05
2017-09-15T09:49:49.673Z,1005.04
2017-09-15T09:50:49.656Z,1005.01
2017-09-15T09:51:49.636Z,1005.01
2017-09-15T09:52:49.617Z,1005.05
2017-09-15T09:53:49.605Z,1005.05
2017-09-15T09:54:49.581Z,1005.01
2017-09-15T09:55:49.562Z,1004.99
2017-09-15T09:56:49.545Z,1005.02
2017-09-15T09:57:49.528Z,1005.06
2017-09-15T09:58:49.508Z,1005.07
2017-09-15T09:59:49.492Z,1005.07
2017-09-15T10:00:49.472Z,1005.11
2017-09-15T10:01:49.451Z,1005.12
2017-09-15T10:02:49.431Z,1005.14
2017-09-15T10:03:49.412Z,1005.12
2017-09-15T10:04:49.393Z,1005.12
2017-09-15T10:05:49.376Z,1005.14
2017-09-15T10:06:49.354Z,1005.03
2017-09-15T10:07:49.335Z,1005.06
2017-09-15T10:08:49.316Z,1005.04
2017-09-15T10:09:49.297Z,1005.05
2017-09-15T10:10:49.282Z,1005.08
2017-09-15T10:11:49.258Z,1005.06
2017-09-15T10:12:49.240Z,1005.06
2017-09-15T10:13:49.222Z,1005.04
2017-09-15T10:14:49.199Z,1005.03
2017-09-15T10:15:49.179Z,1005.06
2017-09-15T10:16:49.160Z,1005.02
2017-09-15T10:17:49.141Z,1005.09
2017-09-15T10:18:49.120Z,1005.09
2017-09-15T10:19:49.098Z,1005.04
2017-09-15T10:20:49.082Z,1005.04
2017-09-15T10:21:49.061Z,1005.05
2017-09-15T10:22:49.040Z,1005
2017-09-15T10:23:49.019Z,1005
2017-09-15T10:24:49.000Z,1004.99
2017-09-15T10:25:48.980Z,1004.94
2017-09-15T10:26:48.959Z,1004.94
2017-09-15T10:27:48.938Z,1004.89
2017-09-15T10:28:48.921Z,1004.93
2017-09-15T10:29:48.898Z,1004.92
2017-09-15T10:30:48.878Z,1004.85
2017-09-15T10:31:48.854Z,1004.94
2017-09-15T10:32:48.841Z,1004.88
2017-09-15T10:33:48.820Z,1004.88
2017-09-15T10:34:48.799Z,1004.87
2017-09-15T10:35:48.778Z,1004.95
2017-09-15T10:36:48.757Z,1004.92
2017-09-15T10:37:48.737Z,1004.87
2017-09-15T10:38:48.717Z,1004.91
2017-09-15T10:39:48.698Z,1004.85
2017-09-15T10:40:48.673Z,1004.87
2017-09-15T10:41:48.662Z,1004.88
2017-09-15T10:42:48.636Z,1004.82
2017-09-15T10:43:48.617Z,1004.82
2017-09-15T10:44:48.598Z,1004.9
2017-09-15T10:45:48.578Z,1004.85
2017-09-15T10:46:48.558Z,1004.86
2017-09-15T10:47:48.538Z,1004.82
2017-09-15T10:48:48.519Z,1004.83
2017-09-15T10:49:48.497Z,1004.76
2017-09-15T10:50:48.479Z,1004.76
2017-09-15T10:51:48.462Z,1004.78
2017-09-15T10:52:48.441Z,1004.76
2017-09-15T10:53:48.423Z,1004.74
2017-09-15T10:54:48.404Z,1004.72
2017-09-15T10:55:48.379Z,1004.76
2017-09-15T10:56:48.362Z,1004.72
2017-09-15T10:57:48.343Z,1004.7
2017-09-15T10:58:48.325Z,1004.77
2017-09-15T10:59:48.304Z,1004.81
2017-09-15T11:00:48.285Z,1004.79
2017-09-15T11:01:48.266Z,1004.77
2017-09-15T11:02:48.246Z,1004.74
2017-09-15T11:03:48.226Z,1004.77
2017-09-15T11:04:48.212Z,1004.7
2017-09-15T11:05:48.184Z,1004.77
2017-09-15T11:06:48.182Z,1004.72
2017-09-15T11:07:48.150Z,1004.7
2017-09-15T11:08:48.126Z,1004.71
2017-09-15T11:09:48.104Z,1004.67
2017-09-15T11:10:48.097Z,1004.71
2017-09-15T11:11:48.120Z,1004.77
2017-09-15T11:12:48.048Z,1004.77
2017-09-15T11:13:48.048Z,1004.75
2017-09-15T11:14:48.008Z,1004.69
2017-09-15T11:15:47.987Z,1004.77
2017-09-15T11:16:47.969Z,1004.77
2017-09-15T11:17:47.961Z,1004.7
2017-09-15T11:18:47.943Z,1004.71
2017-09-15T11:19:47.909Z,1004.8
2017-09-15T11:20:47.901Z,1004.77
2017-09-15T11:21:47.876Z,1004.76
2017-09-15T11:22:47.856Z,1004.75
2017-09-15T11:23:47.837Z,1004.69
2017-09-15T11:24:47.815Z,1004.74
2017-09-15T11:25:47.793Z,1004.73
2017-09-15T11:26:47.778Z,1004.75
2017-09-15T11:27:47.755Z,1004.74
2017-09-15T11:28:47.736Z,1004.68
2017-09-15T11:29:47.714Z,1004.7
2017-09-15T11:30:47.690Z,1004.65
2017-09-15T11:31:47.679Z,1004.68
2017-09-15T11:32:47.660Z,1004.66
2017-09-15T11:33:47.637Z,1004.71
2017-09-15T11:34:47.611Z,1004.67
2017-09-15T11:35:47.591Z,1004.66
2017-09-15T11:36:47.569Z,1004.69
2017-09-15T11:37:47.546Z,1004.64
2017-09-15T11:38:47.530Z,1004.59
2017-09-15T11:39:47.506Z,1004.63
2017-09-15T11:40:47.485Z,1004.6
2017-09-15T11:41:47.469Z,1004.58
2017-09-15T11:42:47.447Z,1004.64
2017-09-15T11:43:47.436Z,1004.59
2017-09-15T11:44:47.418Z,1004.59
2017-09-15T11:45:47.385Z,1004.59
2017-09-15T11:46:47.364Z,1004.57
2017-09-15T11:47:47.346Z,1004.57
2017-09-15T11:48:47.327Z,1004.53
2017-09-15T11:49:47.318Z,1004.43
2017-09-15T11:50:47.285Z,1004.51
2017-09-15T11:51:47.261Z,1004.49
2017-09-15T11:52:47.242Z,1004.5
2017-09-15T11:53:47.234Z,1004.54
2017-09-15T11:54:47.220Z,1004.58
2017-09-15T11:55:47.182Z,1004.51
2017-09-15T11:56:47.159Z,1004.49
2017-09-15T11:57:47.136Z,1004.51
2017-09-15T11:58:47.139Z,1004.49
2017-09-15T11:59:47.100Z,1004.48
2017-09-15T12:00:47.139Z,1004.46
2017-09-15T12:01:47.071Z,1004.47
2017-09-15T12:02:47.039Z,1004.45
2017-09-15T12:03:47.018Z,1004.52
2017-09-15T12:04:47.000Z,1004.49
2017-09-15T12:05:46.984Z,1004.52
2017-09-15T12:06:46.959Z,1004.49
2017-09-15T12:07:46.942Z,1004.5